createdAt,value
2019-04-07T00:03:59.926Z,37.200001
2019-04-07T00:09:22.553Z,38.700001
2019-04-07T00:14:45.939Z,38.200001
2019-04-07T00:20:08.845Z,37.200001
2019-04-07T00:25:31.317Z,38
2019-04-07T00:30:54.951Z,37
2019-04-07T00:36:17.815Z,42.400002
2019-04-07T00:41:40.351Z,40.200001
2019-04-07T00:47:03.116Z,38.599998
2019-04-07T00:52:25.540Z,40.5
2019-04-07T00:57:48.292Z,40.400002
2019-04-07T01:03:10.859Z,41.799999
2019-04-07T01:08:33.575Z,38.099998
2019-04-07T01:13:57.049Z,42.099998
2019-04-07T01:19:19.988Z,41.900002
2019-04-07T01:24:44.048Z,39.700001
2019-04-07T01:30:07.118Z,42.900002
2019-04-07T01:35:30.332Z,40.200001
2019-04-07T01:40:52.176Z,44.299999
2019-04-07T01:46:15.238Z,41.799999
2019-04-07T01:51:37.546Z,43.400002
2019-04-07T01:57:00.288Z,44.200001
2019-04-07T02:02:23.098Z,42.900002
2019-04-07T02:07:45.793Z,41.5
2019-04-07T02:13:08.531Z,42.599998
2019-04-07T02:18:31.353Z,40.5
2019-04-07T02:23:53.898Z,41.400002
2019-04-07T02:29:17.019Z,41.099998
2019-04-07T02:34:40.016Z,43.5
2019-04-07T02:40:03.769Z,42.200001
2019-04-07T02:45:25.506Z,44.599998
2019-04-07T02:50:49.012Z,45.200001
2019-04-07T02:56:11.852Z,47.799999
2019-04-07T03:01:35.153Z,43.400002
2019-04-07T03:06:58.564Z,42.700001
2019-04-07T03:12:21.188Z,44.5
2019-04-07T03:17:44.306Z,43.099998
2019-04-07T03:23:07.396Z,45
2019-04-07T03:28:30.531Z,43.5
2019-04-07T03:33:54.386Z,40.400002
2019-04-07T03:39:17.941Z,43.400002
2019-04-07T03:44:40.990Z,42.900002
2019-04-07T03:50:03.505Z,43.5
2019-04-07T03:55:24.918Z,39.099998
2019-04-07T04:00:48.450Z,42.099998
2019-04-07T04:06:12.769Z,38.400002
2019-04-07T04:11:34.600Z,38.400002
2019-04-07T04:16:57.843Z,36.5
2019-04-07T04:22:21.020Z,38.5
2019-04-07T04:27:43.076Z,37.799999
2019-04-07T04:33:06.184Z,35
2019-04-07T04:38:29.979Z,35.900002
2019-04-07T04:43:53.476Z,36.5
2019-04-07T04:49:16.883Z,36.700001
2019-04-07T04:54:39.489Z,35.700001
2019-04-07T05:00:02.255Z,36.299999
2019-04-07T05:05:24.354Z,37.200001
2019-04-07T05:10:47.291Z,36.200001
2019-04-07T05:16:10.603Z,36.599998
2019-04-07T05:21:32.851Z,37.900002
2019-04-07T05:26:55.793Z,34.900002
2019-04-07T05:32:18.385Z,37.099998
2019-04-07T05:37:41.696Z,35.5
2019-04-07T05:43:04.632Z,33.599998
2019-04-07T05:48:26.484Z,33.200001
2019-04-07T05:53:49.457Z,34.5
2019-04-07T05:59:13.333Z,35.599998
2019-04-07T06:04:36.197Z,32.099998
2019-04-07T06:09:59.965Z,32.900002
2019-04-07T06:15:23.259Z,30.6
2019-04-07T06:20:46.533Z,36.200001
2019-04-07T06:26:11.113Z,33
2019-04-07T06:31:33.230Z,32.299999
2019-04-07T06:36:55.420Z,32.799999
2019-04-07T06:42:17.576Z,31.6
2019-04-07T06:47:39.976Z,32.700001
2019-04-07T06:53:03.208Z,32.599998
2019-04-07T06:58:25.358Z,31.5
2019-04-07T07:03:48.567Z,33.599998
2019-04-07T07:09:13.751Z,30.5
2019-04-07T07:14:42.547Z,34.200001
2019-04-07T07:20:02.338Z,32.900002
2019-04-07T07:25:23.006Z,30.1
2019-04-07T07:30:49.742Z,31.299999
2019-04-07T07:36:10.674Z,30.5
2019-04-07T07:41:33.097Z,28.4
2019-04-07T07:46:55.750Z,30.1
2019-04-07T07:52:20.480Z,27.6
2019-04-07T07:57:42.506Z,27.5
2019-04-07T08:03:05.979Z,25.799999
2019-04-07T08:08:28.686Z,25.9
2019-04-07T08:13:51.317Z,25.200001
2019-04-07T08:19:13.896Z,23.700001
2019-04-07T08:24:37.126Z,24.4
2019-04-07T08:29:59.074Z,23
2019-04-07T08:35:22.123Z,23.200001
2019-04-07T08:40:44.592Z,22.299999
2019-04-07T08:46:07.084Z,20.6
2019-04-07T08:51:32.341Z,22.700001
2019-04-07T08:56:54.159Z,24.700001
2019-04-07T09:02:15.983Z,24.1
2019-04-07T09:07:40.038Z,24
2019-04-07T09:13:03.281Z,23.700001
2019-04-07T09:18:26.546Z,23.9
2019-04-07T09:23:49.013Z,22.799999
2019-04-07T09:29:11.643Z,22.799999
2019-04-07T09:34:33.468Z,22
2019-04-07T09:40:00.457Z,22.9
2019-04-07T09:45:19.569Z,22.4
2019-04-07T09:50:41.989Z,22.9
2019-04-07T09:56:05.732Z,22.6
2019-04-07T10:01:29.553Z,22.799999
2019-04-07T10:06:50.959Z,23.4
2019-04-07T10:12:14.027Z,23.1
2019-04-07T10:17:37.302Z,23.200001
2019-04-07T10:23:00.614Z,23.799999
2019-04-07T10:28:22.640Z,22.200001
2019-04-07T10:33:45.970Z,22.299999
2019-04-07T10:39:08.391Z,22.799999
2019-04-07T10:44:30.351Z,20.700001
2019-04-07T10:49:58.392Z,21.299999
2019-04-07T10:55:16.683Z,21
2019-04-07T11:00:42.430Z,21.4
2019-04-07T11:06:02.819Z,22.1
2019-04-07T11:11:25.461Z,22
2019-04-07T11:16:48.525Z,21.9
2019-04-07T11:22:10.736Z,21.299999
2019-04-07T11:27:33.372Z,24.200001
2019-04-07T11:32:55.974Z,24.5
2019-04-07T11:38:19.080Z,23.6
2019-04-07T11:43:42.418Z,24.299999
2019-04-07T11:49:04.836Z,25.1
2019-04-07T11:54:29.538Z,25.799999
2019-04-07T11:59:52.275Z,26.5
2019-04-07T12:05:15.824Z,24.200001
2019-04-07T12:10:38.715Z,24.200001
2019-04-07T12:16:01.977Z,24.200001
2019-04-07T12:21:25.427Z,21.1
2019-04-07T12:26:48.094Z,22.700001
2019-04-07T12:32:11.581Z,26.6
2019-04-07T12:37:37.186Z,22.5
